Terminal Aerodrome Forecast
Issued by NWS

Home | Current Version | Previous Version | Text Only | Print | Product List | Glossary On
Versions: 1 2 3 4 5 6 7 8 9 10 11 12 13 14 15 16 17 18 19 20 21 22 23 24 25 26 27 28 29
000
FTUS45 KBOI 222212 AAA
TAFMYL
TAF AMD
KMYL 222212Z 2222/2318 VRB06KT P6SM VCTS SCT050CB BKN100
      TEMPO 2222/2224 VRB15G25KT 6SM TSRA BKN040CB
     FM230000 34010KT P6SM VCTS SCT040CB BKN080
     FM230600 32005KT P6SM VCSH OVC040
     FM231500 33011G21KT P6SM VCSH OVC050=

USA.gov is the U.S. government's official web portal to all federal, state and local government web resources and services.